createdAt,value
2023-04-18T00:01:10.908Z,7.05
2023-04-18T00:03:38.943Z,5.53
2023-04-18T00:06:05.765Z,5.75
2023-04-18T00:08:33.549Z,6.50
2023-04-18T00:10:59.888Z,5.70
2023-04-18T00:13:28.252Z,5.10
2023-04-18T00:15:55.204Z,4.60
2023-04-18T00:18:22.035Z,5.07
2023-04-18T00:20:48.464Z,4.78
2023-04-18T00:23:15.046Z,5.55
2023-04-18T00:25:41.468Z,4.78
2023-04-18T00:28:07.875Z,6.30
2023-04-18T00:30:34.462Z,5.53
2023-04-18T00:33:01.309Z,5.25
2023-04-18T00:35:27.784Z,6.88
2023-04-18T00:37:54.170Z,4.22
2023-04-18T00:40:20.642Z,4.45
2023-04-18T00:42:46.977Z,6.57
2023-04-18T00:45:13.429Z,4.70
2023-04-18T00:47:39.879Z,5.53
2023-04-18T00:50:07.299Z,6.90
2023-04-18T00:52:35.743Z,6.55
2023-04-18T00:55:07.858Z,7.57
2023-04-18T00:57:34.906Z,5.45
2023-04-18T01:00:02.277Z,4.93
2023-04-18T01:02:32.083Z,5.20
2023-04-18T01:04:58.656Z,4.95
2023-04-18T01:07:26.486Z,4.68
2023-04-18T01:09:53.928Z,4.57
2023-04-18T01:12:20.402Z,5.93
2023-04-18T01:14:46.780Z,4.80
2023-04-18T01:17:13.451Z,4.00
2023-04-18T01:19:40.542Z,5.18
2023-04-18T01:22:07.533Z,4.55
2023-04-18T01:24:34.173Z,4.15
2023-04-18T01:27:02.771Z,4.18
2023-04-18T01:29:29.204Z,5.15
2023-04-18T01:31:55.735Z,5.32
2023-04-18T01:34:22.178Z,4.53
2023-04-18T01:36:48.807Z,4.63
2023-04-18T01:39:15.442Z,5.35
2023-04-18T01:41:42.204Z,4.93
2023-04-18T01:44:08.635Z,4.32
2023-04-18T01:46:35.945Z,4.20
2023-04-18T01:49:02.506Z,5.65
2023-04-18T01:51:28.945Z,4.45
2023-04-18T01:53:55.375Z,4.63
2023-04-18T01:56:21.829Z,4.45
2023-04-18T01:58:48.349Z,4.40
2023-04-18T02:01:14.807Z,4.82
2023-04-18T02:03:41.302Z,5.13
2023-04-18T02:06:08.005Z,5.45
2023-04-18T02:08:35.694Z,4.70
2023-04-18T02:11:02.299Z,4.60
2023-04-18T02:13:28.987Z,6.13
2023-04-18T02:15:55.321Z,5.28
2023-04-18T02:18:24.637Z,4.93
2023-04-18T02:20:51.884Z,4.75
2023-04-18T02:23:19.050Z,5.72
2023-04-18T02:25:45.665Z,4.82
2023-04-18T02:28:12.155Z,5.65
2023-04-18T02:30:38.539Z,5.40
2023-04-18T02:33:04.971Z,4.75
2023-04-18T02:35:31.745Z,6.35
2023-04-18T02:37:58.056Z,6.47
2023-04-18T02:40:24.458Z,5.13
2023-04-18T02:42:51.068Z,7.13
2023-04-18T02:45:17.768Z,5.38
2023-04-18T02:47:54.735Z,6.65
2023-04-18T02:50:23.019Z,4.97
2023-04-18T02:52:49.409Z,6.07
2023-04-18T02:55:16.079Z,4.95
2023-04-18T02:57:42.457Z,5.70
2023-04-18T03:00:09.378Z,6.60
2023-04-18T03:02:35.903Z,5.82
2023-04-18T03:05:02.726Z,5.60
2023-04-18T03:07:30.818Z,6.22
2023-04-18T03:09:57.219Z,7.38
2023-04-18T03:12:23.590Z,4.80
2023-04-18T03:14:50.099Z,7.65
2023-04-18T03:17:16.506Z,8.82
2023-04-18T03:19:43.007Z,7.40
2023-04-18T03:22:09.924Z,5.38
2023-04-18T03:24:36.252Z,7.53
2023-04-18T03:27:02.678Z,6.53
2023-04-18T03:29:29.093Z,5.40
2023-04-18T03:31:55.591Z,6.15
2023-04-18T03:34:22.172Z,6.65
2023-04-18T03:36:48.690Z,6.30
2023-04-18T03:39:15.038Z,6.43
2023-04-18T03:41:41.414Z,6.35
2023-04-18T03:44:07.854Z,6.47
2023-04-18T03:46:34.889Z,6.32
2023-04-18T03:49:01.233Z,8.13
2023-04-18T03:51:27.731Z,6.10
2023-04-18T03:53:54.148Z,6.38
2023-04-18T03:56:20.804Z,6.38
2023-04-18T03:58:47.153Z,8.65
2023-04-18T04:01:13.571Z,6.75
2023-04-18T04:03:40.283Z,6.10
2023-04-18T04:06:06.917Z,6.50
2023-04-18T04:08:34.176Z,5.75
2023-04-18T04:11:00.522Z,5.88
2023-04-18T04:13:26.858Z,6.72
2023-04-18T04:15:53.416Z,7.28
2023-04-18T04:18:20.143Z,7.68
2023-04-18T04:20:46.994Z,7.32
2023-04-18T04:23:13.466Z,6.55
2023-04-18T04:25:39.935Z,6.95
2023-04-18T04:28:06.628Z,6.20
2023-04-18T04:30:33.631Z,7.05
2023-04-18T04:33:01.579Z,6.28
2023-04-18T04:35:28.294Z,7.40
2023-04-18T04:37:54.679Z,7.05
2023-04-18T04:40:22.883Z,7.15
2023-04-18T04:42:53.855Z,6.50
2023-04-18T04:45:20.474Z,7.47
2023-04-18T04:47:47.520Z,8.00
2023-04-18T04:50:15.666Z,7.43
2023-04-18T04:52:42.590Z,9.55
2023-04-18T04:55:09.103Z,8.90
2023-04-18T04:57:35.916Z,10.27
2023-04-18T05:00:02.287Z,9.27
2023-04-18T05:02:28.780Z,9.65
2023-04-18T05:04:55.355Z,11.60
2023-04-18T05:07:21.850Z,9.32
2023-04-18T05:09:48.178Z,9.93
2023-04-18T05:12:14.669Z,8.85
2023-04-18T05:14:40.998Z,8.63
2023-04-18T05:17:07.723Z,8.95
2023-04-18T05:19:34.137Z,9.93
2023-04-18T05:22:00.510Z,10.25
2023-04-18T05:24:26.844Z,10.70
2023-04-18T05:26:53.602Z,10.25
2023-04-18T05:29:20.276Z,9.95
2023-04-18T05:31:46.644Z,11.02
2023-04-18T05:34:13.203Z,9.60
2023-04-18T05:36:39.840Z,11.60
2023-04-18T05:39:06.180Z,11.25
2023-04-18T05:41:32.622Z,10.65
2023-04-18T05:44:05.456Z,10.90
2023-04-18T05:46:43.463Z,11.88
2023-04-18T05:49:09.906Z,9.55
2023-04-18T05:51:36.284Z,10.43
2023-04-18T05:54:02.828Z,11.52
2023-04-18T05:56:29.271Z,10.98
2023-04-18T05:58:55.794Z,12.20
2023-04-18T06:01:22.982Z,11.88
2023-04-18T06:03:49.430Z,11.52
2023-04-18T06:06:16.087Z,10.35
2023-04-18T06:08:42.554Z,12.23
2023-04-18T06:11:09.023Z,13.20
2023-04-18T06:13:36.076Z,15.73
2023-04-18T06:16:03.229Z,11.75
2023-04-18T06:18:29.563Z,12.55
2023-04-18T06:20:55.915Z,11.02
2023-04-18T06:23:22.421Z,11.88
2023-04-18T06:25:48.804Z,13.48
2023-04-18T06:28:15.142Z,12.35
2023-04-18T06:30:41.610Z,12.73
2023-04-18T06:33:10.458Z,11.73
2023-04-18T06:35:37.365Z,9.88
2023-04-18T06:38:04.288Z,13.38
2023-04-18T06:40:30.682Z,10.57
2023-04-18T06:42:57.034Z,10.73
2023-04-18T06:45:23.443Z,10.82
2023-04-18T06:47:51.255Z,14.35
2023-04-18T06:50:17.640Z,14.25
2023-04-18T06:52:46.717Z,14.05
2023-04-18T06:55:13.994Z,13.52
2023-04-18T06:57:41.766Z,13.25
2023-04-18T07:00:10.025Z,13.10
2023-04-18T07:02:38.756Z,13.27
2023-04-18T07:05:06.233Z,14.40
2023-04-18T07:07:34.980Z,13.30
2023-04-18T07:10:01.558Z,12.18
2023-04-18T07:12:27.898Z,12.65
2023-04-18T07:14:54.758Z,16.50
2023-04-18T07:17:21.179Z,12.77
2023-04-18T07:19:47.711Z,16.70
2023-04-18T07:22:14.108Z,13.35
2023-04-18T07:24:40.497Z,14.38
2023-04-18T07:27:06.991Z,13.07
2023-04-18T07:29:33.311Z,14.75
2023-04-18T07:31:59.637Z,15.55
2023-04-18T07:34:29.698Z,14.20
2023-04-18T07:36:58.859Z,14.23
2023-04-18T07:39:25.341Z,13.50
2023-04-18T07:41:51.746Z,16.20
2023-04-18T07:44:18.482Z,16.02
2023-04-18T07:46:44.973Z,14.60
2023-04-18T07:49:11.657Z,14.75
2023-04-18T07:51:38.143Z,15.98
2023-04-18T07:54:04.660Z,11.98
2023-04-18T07:56:30.997Z,13.57
2023-04-18T07:58:57.316Z,13.68
2023-04-18T08:01:24.793Z,13.90
2023-04-18T08:03:53.157Z,14.18
2023-04-18T08:06:19.720Z,13.48
2023-04-18T08:08:46.444Z,15.10
2023-04-18T08:11:12.916Z,15.60
2023-04-18T08:13:39.370Z,14.27
2023-04-18T08:16:06.237Z,14.10
2023-04-18T08:18:32.579Z,13.52
2023-04-18T08:20:58.949Z,12.05
2023-04-18T08:23:25.363Z,12.68
2023-04-18T08:25:51.706Z,16.50
2023-04-18T08:28:18.371Z,15.00
2023-04-18T08:30:48.658Z,15.10
2023-04-18T08:33:16.109Z,15.38
2023-04-18T08:35:43.029Z,13.93
2023-04-18T08:38:09.646Z,14.85
2023-04-18T08:40:37.180Z,13.82
2023-04-18T08:43:09.203Z,12.88
2023-04-18T08:45:36.734Z,12.27
2023-04-18T08:48:03.778Z,13.40
2023-04-18T08:50:30.675Z,12.88
2023-04-18T08:52:59.412Z,15.18
2023-04-18T08:55:25.758Z,12.30
2023-04-18T08:57:55.057Z,12.20
2023-04-18T09:00:22.641Z,13.32
2023-04-18T09:02:49.437Z,13.27
2023-04-18T09:05:19.994Z,13.15
2023-04-18T09:07:47.736Z,12.82
2023-04-18T09:10:26.338Z,12.05
2023-04-18T09:12:52.698Z,14.02
2023-04-18T09:15:23.562Z,13.68
2023-04-18T09:17:54.459Z,14.77
2023-04-18T09:20:35.798Z,13.52
2023-04-18T09:23:04.215Z,14.18
2023-04-18T09:25:40.793Z,13.00
2023-04-18T09:28:32.972Z,13.40
2023-04-18T09:31:17.359Z,15.35
2023-04-18T09:33:56.650Z,13.88
2023-04-18T09:36:26.968Z,14.45
2023-04-18T09:38:56.225Z,14.77
2023-04-18T09:41:23.670Z,13.73
2023-04-18T09:43:50.331Z,13.35
2023-04-18T09:46:17.772Z,14.65
2023-04-18T09:48:44.268Z,16.52
2023-04-18T09:51:13.915Z,16.02
2023-04-18T09:53:44.863Z,15.40
2023-04-18T09:56:27.460Z,15.50
2023-04-18T09:59:07.086Z,15.30
2023-04-18T10:01:33.819Z,14.80
2023-04-18T10:04:02.127Z,13.82
2023-04-18T10:06:28.912Z,14.43
2023-04-18T10:08:56.000Z,13.27
2023-04-18T10:11:24.016Z,15.65
2023-04-18T10:13:56.219Z,14.88
2023-04-18T10:16:23.234Z,12.68
2023-04-18T10:18:51.023Z,13.18
2023-04-18T10:21:17.564Z,13.15
2023-04-18T10:23:45.776Z,15.93
2023-04-18T10:26:12.324Z,11.93
2023-04-18T10:28:58.155Z,13.15
2023-04-18T10:31:27.406Z,12.27
2023-04-18T10:34:05.301Z,14.43
2023-04-18T10:36:32.378Z,12.93
2023-04-18T10:39:19.310Z,13.48
2023-04-18T10:41:50.927Z,11.18
2023-04-18T10:44:21.747Z,12.45
2023-04-18T10:46:48.050Z,10.88
2023-04-18T10:49:23.897Z,15.45
2023-04-18T10:51:53.690Z,14.18
2023-04-18T10:54:28.553Z,11.85
2023-04-18T10:56:56.673Z,12.90
2023-04-18T10:59:25.023Z,10.77
2023-04-18T11:01:57.273Z,12.07
2023-04-18T11:04:25.587Z,12.93
2023-04-18T11:06:57.399Z,11.85
2023-04-18T11:09:24.456Z,11.90
2023-04-18T11:12:08.280Z,12.05
2023-04-18T11:14:49.952Z,14.57
2023-04-18T11:17:21.942Z,11.95
2023-04-18T11:19:48.466Z,13.45
2023-04-18T11:22:16.268Z,12.82
2023-04-18T11:24:42.783Z,14.93
2023-04-18T11:27:10.895Z,12.23
2023-04-18T11:29:38.157Z,13.40
2023-04-18T11:32:09.296Z,12.13
2023-04-18T11:34:35.924Z,12.93
2023-04-18T11:37:07.546Z,14.18
2023-04-18T11:39:36.257Z,11.60
2023-04-18T11:42:02.653Z,12.77
2023-04-18T11:44:29.050Z,11.77
2023-04-18T11:46:55.458Z,12.20
2023-04-18T11:49:39.958Z,11.93
2023-04-18T11:52:12.256Z,12.50
2023-04-18T11:54:43.405Z,11.93
2023-04-18T11:57:20.377Z,10.07
2023-04-18T11:59:54.250Z,10.30
2023-04-18T12:02:22.393Z,11.55
2023-04-18T12:05:00.245Z,12.77
2023-04-18T12:07:45.742Z,10.63
2023-04-18T12:10:25.962Z,10.52
2023-04-18T12:12:54.802Z,10.88
2023-04-18T12:15:24.047Z,9.60
2023-04-18T12:17:53.400Z,11.93
2023-04-18T12:20:20.019Z,10.57
2023-04-18T12:22:51.456Z,9.20
2023-04-18T12:25:27.836Z,11.25
2023-04-18T12:28:12.774Z,9.82
2023-04-18T12:30:39.112Z,8.93
2023-04-18T12:33:05.454Z,9.18
2023-04-18T12:35:32.331Z,8.45
2023-04-18T12:38:00.374Z,9.45
2023-04-18T12:40:27.185Z,10.52
2023-04-18T12:42:54.414Z,9.23
2023-04-18T12:45:22.674Z,9.20
2023-04-18T12:47:50.822Z,8.27
2023-04-18T12:50:21.963Z,8.05
2023-04-18T12:52:48.895Z,7.95
2023-04-18T12:55:15.704Z,8.35
2023-04-18T12:57:43.080Z,9.43
2023-04-18T13:00:14.635Z,7.80
2023-04-18T13:02:43.935Z,8.95
2023-04-18T13:05:12.791Z,7.40
2023-04-18T13:07:43.033Z,7.78
2023-04-18T13:10:10.988Z,9.77
2023-04-18T13:12:37.994Z,11.23
2023-04-18T13:15:05.405Z,9.23
2023-04-18T13:17:32.652Z,7.47
2023-04-18T13:20:00.102Z,8.55
2023-04-18T13:22:28.315Z,7.47
2023-04-18T13:24:54.662Z,6.95
2023-04-18T13:27:21.079Z,6.82
2023-04-18T13:29:47.438Z,7.07
2023-04-18T13:32:13.871Z,8.45
2023-04-18T13:34:46.239Z,6.57
2023-04-18T13:37:13.889Z,8.50
2023-04-18T13:39:40.736Z,9.13
2023-04-18T13:42:08.512Z,7.20
2023-04-18T13:44:36.703Z,6.97
2023-04-18T13:47:04.953Z,7.88
2023-04-18T13:49:32.761Z,6.28
2023-04-18T13:51:59.161Z,7.43
2023-04-18T13:54:29.792Z,6.30
2023-04-18T13:56:58.228Z,7.75
2023-04-18T13:59:25.825Z,6.75
2023-04-18T14:01:53.374Z,6.53
2023-04-18T14:04:24.221Z,7.45
2023-04-18T14:06:51.237Z,5.60
2023-04-18T14:09:17.878Z,6.45
2023-04-18T14:11:45.484Z,7.03
2023-04-18T14:14:11.937Z,6.78
2023-04-18T14:16:38.335Z,6.45
2023-04-18T14:19:04.809Z,5.63
2023-04-18T14:21:31.538Z,6.30
2023-04-18T14:23:57.857Z,7.45
2023-04-18T14:26:24.410Z,5.78
2023-04-18T14:28:51.096Z,7.68
2023-04-18T14:31:17.779Z,6.50
2023-04-18T14:33:44.709Z,7.35
2023-04-18T14:36:11.228Z,6.72
2023-04-18T14:38:37.796Z,6.60
2023-04-18T14:41:05.464Z,7.03
2023-04-18T14:43:32.214Z,6.97
2023-04-18T14:45:59.690Z,7.38
2023-04-18T14:48:26.586Z,5.75
2023-04-18T14:51:00.268Z,5.05
2023-04-18T14:53:27.068Z,5.65
2023-04-18T14:55:53.515Z,7.65
2023-04-18T14:58:20.280Z,6.78
2023-04-18T15:00:46.661Z,5.07
2023-04-18T15:03:13.605Z,5.25
2023-04-18T15:05:42.932Z,6.50
2023-04-18T15:08:11.373Z,6.90
2023-04-18T15:10:38.592Z,4.80
2023-04-18T15:13:05.003Z,5.53
2023-04-18T15:15:35.360Z,5.15
2023-04-18T15:18:02.518Z,5.75
2023-04-18T15:20:29.526Z,5.10
2023-04-18T15:22:56.807Z,7.97
2023-04-18T15:25:23.483Z,6.93
2023-04-18T15:27:49.933Z,4.50
2023-04-18T15:30:16.513Z,5.68
2023-04-18T15:32:42.926Z,4.28
2023-04-18T15:35:10.191Z,5.47
2023-04-18T15:37:37.034Z,5.50
2023-04-18T15:40:06.548Z,6.97
2023-04-18T15:42:33.846Z,5.10
2023-04-18T15:45:00.356Z,6.75
2023-04-18T15:47:27.056Z,4.57
2023-04-18T15:49:53.522Z,4.40
2023-04-18T15:52:19.937Z,4.75
2023-04-18T15:54:46.379Z,9.90
2023-04-18T15:57:12.790Z,5.20
2023-04-18T15:59:39.235Z,6.00
2023-04-18T16:02:07.367Z,5.78
2023-04-18T16:04:34.076Z,5.28
2023-04-18T16:07:00.849Z,5.53
2023-04-18T16:09:27.226Z,7.60
2023-04-18T16:11:53.782Z,7.18
2023-04-18T16:14:20.104Z,6.13
2023-04-18T16:16:46.411Z,5.88
2023-04-18T16:19:12.875Z,5.28
2023-04-18T16:21:39.276Z,5.25
2023-04-18T16:24:06.037Z,6.10
2023-04-18T16:26:32.399Z,7.95
2023-04-18T16:28:58.935Z,7.18
2023-04-18T16:31:25.768Z,7.85
2023-04-18T16:33:55.140Z,6.75
2023-04-18T16:36:21.578Z,6.43
2023-04-18T16:38:48.014Z,6.75
2023-04-18T16:41:14.340Z,7.47
2023-04-18T16:43:40.776Z,5.88
2023-04-18T16:46:08.049Z,4.75
2023-04-18T16:48:37.722Z,5.80
2023-04-18T16:51:04.555Z,5.38
2023-04-18T16:53:31.020Z,7.50
2023-04-18T16:55:57.533Z,5.22
2023-04-18T16:58:23.916Z,5.72
2023-04-18T17:00:50.450Z,5.90
2023-04-18T17:03:17.197Z,6.65
2023-04-18T17:05:44.450Z,5.97
2023-04-18T17:08:10.927Z,5.35
2023-04-18T17:10:37.504Z,5.05
2023-04-18T17:13:04.011Z,6.63
2023-04-18T17:15:30.832Z,4.85
2023-04-18T17:18:00.004Z,4.55
2023-04-18T17:20:27.932Z,6.18
2023-04-18T17:22:54.767Z,6.25
2023-04-18T17:25:21.520Z,5.93
2023-04-18T17:27:47.954Z,6.35
2023-04-18T17:30:14.593Z,6.60
2023-04-18T17:32:45.595Z,6.32
2023-04-18T17:35:14.522Z,5.85
2023-04-18T17:37:42.351Z,6.25
2023-04-18T17:40:10.101Z,5.25
2023-04-18T17:42:39.033Z,4.70
2023-04-18T17:45:09.595Z,6.13
2023-04-18T17:47:36.614Z,5.18
2023-04-18T17:50:06.974Z,5.03
2023-04-18T17:52:33.610Z,5.32
2023-04-18T17:55:01.498Z,5.45
2023-04-18T17:57:30.277Z,5.00
2023-04-18T17:59:56.692Z,5.25
2023-04-18T18:02:28.070Z,5.45
2023-04-18T18:04:55.003Z,5.63
2023-04-18T18:07:21.429Z,7.82
2023-04-18T18:09:47.782Z,6.05
2023-04-18T18:12:14.395Z,4.30
2023-04-18T18:14:40.750Z,7.85
2023-04-18T18:17:07.399Z,8.10
2023-04-18T18:19:36.688Z,6.05
2023-04-18T18:22:03.236Z,7.25
2023-04-18T18:24:29.741Z,5.50
2023-04-18T18:26:56.796Z,7.45
2023-04-18T18:29:23.255Z,6.93
2023-04-18T18:31:49.934Z,7.28
2023-04-18T18:34:16.902Z,5.95
2023-04-18T18:36:43.303Z,6.10
2023-04-18T18:39:11.065Z,6.40
2023-04-18T18:41:37.563Z,8.38
2023-04-18T18:44:04.013Z,5.50
2023-04-18T18:46:31.081Z,5.90
2023-04-18T18:48:57.487Z,6.13
2023-04-18T18:51:23.906Z,5.35
2023-04-18T18:53:50.652Z,6.00
2023-04-18T18:56:17.083Z,6.63
2023-04-18T18:58:43.726Z,7.47
2023-04-18T19:01:11.488Z,7.43
2023-04-18T19:03:38.108Z,6.53
2023-04-18T19:06:06.912Z,8.77
2023-04-18T19:08:33.817Z,7.53
2023-04-18T19:11:00.238Z,6.90
2023-04-18T19:13:26.617Z,7.57
2023-04-18T19:15:53.183Z,7.72
2023-04-18T19:18:20.248Z,5.82
2023-04-18T19:20:47.084Z,8.45
2023-04-18T19:23:13.697Z,6.78
2023-04-18T19:25:40.136Z,9.57
2023-04-18T19:28:06.570Z,10.82
2023-04-18T19:30:33.018Z,9.70
2023-04-18T19:32:59.655Z,8.25
2023-04-18T19:35:26.161Z,7.88
2023-04-18T19:37:55.816Z,10.15
2023-04-18T19:40:23.689Z,8.30
2023-04-18T19:42:50.104Z,7.88
2023-04-18T19:45:16.516Z,8.30
2023-04-18T19:47:44.330Z,8.35
2023-04-18T19:50:11.447Z,9.55
2023-04-18T19:52:38.027Z,8.38
2023-04-18T19:55:05.213Z,8.48
2023-04-18T19:57:31.840Z,7.38
2023-04-18T19:59:58.389Z,9.38
2023-04-18T20:02:24.859Z,9.75
2023-04-18T20:04:51.482Z,11.25
2023-04-18T20:07:18.088Z,8.32
2023-04-18T20:09:44.442Z,7.93
2023-04-18T20:12:10.847Z,7.78
2023-04-18T20:14:37.217Z,7.95
2023-04-18T20:17:03.648Z,8.70
2023-04-18T20:19:30.061Z,10.68
2023-04-18T20:21:56.408Z,8.45
2023-04-18T20:24:23.682Z,8.48
2023-04-18T20:26:51.274Z,10.32
2023-04-18T20:29:17.719Z,8.65
2023-04-18T20:31:44.201Z,9.80
2023-04-18T20:34:10.913Z,9.50
2023-04-18T20:36:41.452Z,8.02
2023-04-18T20:39:08.886Z,11.88
2023-04-18T20:41:36.781Z,10.15
2023-04-18T20:44:05.240Z,9.27
2023-04-18T20:46:32.491Z,8.65
2023-04-18T20:48:59.014Z,9.30
2023-04-18T20:51:26.794Z,9.00
2023-04-18T20:53:53.377Z,10.07
2023-04-18T20:56:20.067Z,10.35
2023-04-18T20:58:46.495Z,11.15
2023-04-18T21:01:13.174Z,10.75
2023-04-18T21:03:39.705Z,9.45
2023-04-18T21:06:06.167Z,10.27
2023-04-18T21:08:35.048Z,9.95
2023-04-18T21:11:01.561Z,12.20
2023-04-18T21:13:27.950Z,9.77
2023-04-18T21:15:57.032Z,10.50
2023-04-18T21:18:23.858Z,11.38
2023-04-18T21:20:50.485Z,10.77
2023-04-18T21:23:16.928Z,9.95
2023-04-18T21:25:43.351Z,12.52
2023-04-18T21:28:09.790Z,9.57
2023-04-18T21:30:36.325Z,12.02
2023-04-18T21:33:03.319Z,9.65
2023-04-18T21:35:30.184Z,10.27
2023-04-18T21:37:56.866Z,9.85
2023-04-18T21:40:24.205Z,9.38
2023-04-18T21:42:53.304Z,13.60
2023-04-18T21:45:19.741Z,12.32
2023-04-18T21:47:46.729Z,13.52
2023-04-18T21:50:13.160Z,11.60
2023-04-18T21:52:39.676Z,10.32
2023-04-18T21:55:06.274Z,10.85
2023-04-18T21:57:32.603Z,13.73
2023-04-18T21:59:58.987Z,12.93
2023-04-18T22:02:26.818Z,10.88
2023-04-18T22:04:53.344Z,10.35
2023-04-18T22:07:20.309Z,9.75
2023-04-18T22:09:46.946Z,14.63
2023-04-18T22:12:14.306Z,12.20
2023-04-18T22:14:41.874Z,11.85
2023-04-18T22:17:09.195Z,12.05
2023-04-18T22:19:35.639Z,12.32
2023-04-18T22:22:02.106Z,11.55
2023-04-18T22:24:28.561Z,9.98
2023-04-18T22:26:54.955Z,13.40
2023-04-18T22:29:21.379Z,11.60
2023-04-18T22:31:47.752Z,10.38
2023-04-18T22:34:14.436Z,10.05
2023-04-18T22:36:42.569Z,9.45
2023-04-18T22:39:09.074Z,9.57
2023-04-18T22:41:35.725Z,11.98
2023-04-18T22:44:02.181Z,11.02
2023-04-18T22:46:28.758Z,7.47
2023-04-18T22:48:55.255Z,9.73
2023-04-18T22:51:23.291Z,8.45
2023-04-18T22:53:49.823Z,10.02
2023-04-18T22:56:16.268Z,8.88
2023-04-18T22:58:42.658Z,8.55
2023-04-18T23:01:09.089Z,10.05
2023-04-18T23:03:35.817Z,8.50
2023-04-18T23:06:02.431Z,10.32
2023-04-18T23:08:28.966Z,9.68
2023-04-18T23:10:55.421Z,8.70
2023-04-18T23:13:21.803Z,8.55
2023-04-18T23:15:48.243Z,8.82
2023-04-18T23:18:15.024Z,9.52
2023-04-18T23:20:41.347Z,9.07
2023-04-18T23:23:07.678Z,8.13
2023-04-18T23:25:34.297Z,7.30
2023-04-18T23:28:00.748Z,7.20
2023-04-18T23:30:27.182Z,6.82
2023-04-18T23:32:53.922Z,7.00
2023-04-18T23:35:20.355Z,5.53
2023-04-18T23:37:46.790Z,5.88
2023-04-18T23:40:13.319Z,7.25
2023-04-18T23:42:39.671Z,6.10
2023-04-18T23:45:06.480Z,6.25
2023-04-18T23:47:33.075Z,6.07
2023-04-18T23:49:59.565Z,7.55
2023-04-18T23:52:26.017Z,7.10
2023-04-18T23:54:52.544Z,7.50
2023-04-18T23:57:18.892Z,9.77
2023-04-18T23:59:45.422Z,5.55
